Time;durP1;ratioP1;P1;durP2;ratioP2;P2;SDS_P1;SDS_P2;PMS_P1;PMS_P2;Temp;Humidity;BMP_temperature;BMP_pressure;BME280_temperature;BME280_humidity;BME280_pressure;Samples;Min_cycle;Max_cycle;Signal;HPM_P1;HPM_P2
2024/03/18 00:02:24;;;;;;;16.50;10.40;;;8.80;1.00;;;;;;5072852;28;20036;-67
2024/03/18 00:04:50;;;;;;;14.70;10.52;;;8.80;1.00;;;;;;5071757;28;20020;-68
2024/03/18 00:07:16;;;;;;;16.33;10.80;;;8.80;1.00;;;;;;5072945;28;20070;-67
2024/03/18 00:09:41;;;;;;;17.00;10.27;;;8.80;1.00;;;;;;5072711;28;20063;-67
2024/03/18 00:12:08;;;;;;;15.65;10.27;;;8.80;1.00;;;;;;5072903;28;20032;-67
2024/03/18 00:14:33;;;;;;;17.15;10.38;;;8.80;1.00;;;;;;5072644;28;20028;-68
2024/03/18 00:16:59;;;;;;;19.55;10.48;;;8.80;1.00;;;;;;5072503;28;20379;-68
2024/03/18 00:19:25;;;;;;;15.68;10.75;;;8.80;1.00;;;;;;5072651;28;20029;-68
2024/03/18 00:21:50;;;;;;;16.08;10.15;;;8.80;1.00;;;;;;5072271;28;20067;-68
2024/03/18 00:24:18;;;;;;;16.02;10.10;;;8.80;1.00;;;;;;5072566;28;20025;-67
2024/03/18 00:26:43;;;;;;;17.88;10.88;;;8.80;1.00;;;;;;5072542;28;20028;-68
2024/03/18 00:29:09;;;;;;;17.58;11.52;;;8.80;1.00;;;;;;5072498;28;20020;-68
2024/03/18 00:31:34;;;;;;;16.17;9.82;;;8.80;1.00;;;;;;5076132;28;20021;-68
2024/03/18 00:34:00;;;;;;;18.48;11.25;;;8.80;1.00;;;;;;5075848;28;20032;-68
2024/03/18 00:36:26;;;;;;;17.20;9.55;;;8.80;1.00;;;;;;5076295;28;20033;-68
2024/03/18 00:38:51;;;;;;;16.02;10.63;;;8.80;1.00;;;;;;5075990;28;20060;-68
2024/03/18 00:41:48;;;;;;;17.48;10.45;;;8.80;1.00;;;;;;5075933;28;20107;-68
2024/03/18 00:44:04;;;;;;;16.25;10.75;;;8.80;1.00;;;;;;5075667;28;20036;-68
2024/03/18 00:46:30;;;;;;;20.67;10.80;;;8.80;7.00;;;;;;5075913;28;20028;-68
2024/03/18 00:48:55;;;;;;;22.73;10.70;;;8.80;1.00;;;;;;5075763;28;20051;-67
2024/03/18 00:51:21;;;;;;;16.83;10.50;;;8.80;54.20;;;;;;5075751;28;20033;-67
2024/03/18 00:53:47;;;;;;;19.60;11.82;;;8.80;99.90;;;;;;5075751;28;20024;-67
2024/03/18 00:56:12;;;;;;;17.13;11.38;;;8.80;99.90;;;;;;5075704;28;20542;-67
2024/03/18 00:58:38;;;;;;;16.17;11.00;;;8.80;99.90;;;;;;5075741;28;20025;-68
2024/03/18 01:01:03;;;;;;;15.35;10.60;;;8.80;99.90;;;;;;5075568;28;20032;-67
2024/03/18 01:03:29;;;;;;;16.02;10.60;;;8.80;99.90;;;;;;5091499;28;20020;-67
2024/03/18 01:05:55;;;;;;;14.57;10.07;;;8.80;99.90;;;;;;5075844;28;20032;-68
2024/03/18 01:08:21;;;;;;;16.38;10.32;;;8.70;99.90;;;;;;5075354;28;20020;-68
2024/03/18 01:10:48;;;;;;;17.77;10.50;;;8.80;99.90;;;;;;5075489;28;20036;-68
2024/03/18 01:13:14;;;;;;;16.95;11.15;;;8.70;99.90;;;;;;5074412;28;20551;-68
2024/03/18 01:15:40;;;;;;;20.58;10.75;;;8.70;99.90;;;;;;5075387;28;20024;-67
2024/03/18 01:18:06;;;;;;;18.50;11.93;;;8.70;99.90;;;;;;5075268;28;20025;-67
2024/03/18 01:20:33;;;;;;;20.75;12.10;;;8.70;1.00;;;;;;5074287;28;20379;-68
2024/03/18 01:22:59;;;;;;;20.52;12.13;;;8.60;1.00;;;;;;5074966;28;20063;-68
2024/03/18 01:25:25;;;;;;;17.98;12.00;;;8.60;1.00;;;;;;5075312;28;20502;-68
2024/03/18 01:27:51;;;;;;;18.42;11.70;;;8.60;1.00;;;;;;5075073;28;20382;-68
2024/03/18 01:30:18;;;;;;;20.15;12.23;;;8.50;1.00;;;;;;5075005;28;20021;-67
2024/03/18 01:32:43;;;;;;;22.60;12.68;;;8.50;1.00;;;;;;5074996;28;20391;-67
2024/03/18 01:35:12;;;;;;;18.95;12.30;;;8.50;1.00;;;;;;5073805;28;20039;-68
2024/03/18 01:37:38;;;;;;;19.73;12.20;;;8.40;1.00;;;;;;5074869;28;20033;-67
2024/03/18 01:40:10;;;;;;;18.13;12.30;;;8.40;7.80;;;;;;5073789;28;20107;-67
2024/03/18 01:42:36;;;;;;;21.00;12.93;;;8.40;13.40;;;;;;5074752;28;20028;-68
2024/03/18 01:45:03;;;;;;;22.83;13.70;;;8.40;21.60;;;;;;5074841;28;20082;-68
2024/03/18 01:47:28;;;;;;;17.58;12.40;;;8.30;26.10;;;;;;5074565;28;20020;-68
2024/03/18 01:49:54;;;;;;;23.08;12.13;;;8.30;21.40;;;;;;5074922;28;20078;-67
2024/03/18 01:52:20;;;;;;;18.58;12.20;;;8.30;21.80;;;;;;5074573;28;20024;-68
2024/03/18 01:54:47;;;;;;;19.67;12.18;;;8.30;18.80;;;;;;5090351;28;20024;-68
2024/03/18 01:57:13;;;;;;;23.67;12.98;;;8.30;19.90;;;;;;5074650;28;20052;-67
2024/03/18 01:59:38;;;;;;;23.17;13.52;;;8.40;24.40;;;;;;5074686;28;20033;-68
2024/03/18 02:02:04;;;;;;;20.65;12.88;;;8.40;30.80;;;;;;5074569;28;20094;-67
2024/03/18 02:04:30;;;;;;;23.52;13.40;;;8.30;39.00;;;;;;5074438;28;20020;-67
2024/03/18 02:06:56;;;;;;;22.40;14.02;;;8.30;43.90;;;;;;5074569;28;20025;-67
2024/03/18 02:09:24;;;;;;;25.90;13.65;;;8.30;51.60;;;;;;5074272;28;20482;-67
2024/03/18 02:11:51;;;;;;;22.23;14.15;;;8.30;63.50;;;;;;5074203;28;20489;-67
2024/03/18 02:14:17;;;;;;;22.90;13.82;;;8.20;69.60;;;;;;5074117;28;20107;-67
2024/03/18 02:16:43;;;;;;;21.20;14.55;;;8.20;71.40;;;;;;5074154;28;20067;-67
2024/03/18 02:19:09;;;;;;;22.25;13.57;;;8.20;74.20;;;;;;5074123;28;20382;-67
2024/03/18 02:21:35;;;;;;;26.10;14.27;;;8.20;77.90;;;;;;5073527;28;20047;-68
2024/03/18 02:24:03;;;;;;;23.45;13.95;;;8.20;80.10;;;;;;5074146;28;20054;-67
2024/03/18 02:26:31;;;;;;;24.40;14.32;;;8.20;79.80;;;;;;5074160;28;20046;-67
2024/03/18 02:28:56;;;;;;;25.40;14.38;;;8.20;77.90;;;;;;5072828;28;20029;-67
2024/03/18 02:31:22;;;;;;;24.58;14.23;;;8.20;71.20;;;;;;5073703;28;20502;-67
2024/03/18 02:33:48;;;;;;;27.85;14.85;;;8.20;68.90;;;;;;5073751;28;20041;-67
2024/03/18 02:36:13;;;;;;;21.45;13.63;;;8.20;71.80;;;;;;5073764;28;20025;-67
2024/03/18 02:38:39;;;;;;;24.17;14.52;;;8.20;70.80;;;;;;5073766;28;20099;-67
2024/03/18 02:41:05;;;;;;;28.27;15.15;;;8.20;75.80;;;;;;5073724;28;20032;-67
2024/03/18 02:43:31;;;;;;;25.08;13.73;;;8.30;83.20;;;;;;5072495;28;20463;-67
2024/03/18 02:45:56;;;;;;;24.58;13.95;;;8.20;87.60;;;;;;5073692;28;20032;-67
2024/03/18 02:48:24;;;;;;;24.95;15.48;;;8.20;86.30;;;;;;5073540;28;20029;-67
2024/03/18 02:50:50;;;;;;;25.92;15.18;;;8.20;87.70;;;;;;5073469;28;20025;-67
2024/03/18 02:53:16;;;;;;;23.75;14.07;;;8.20;85.80;;;;;;5071766;28;20024;-67
2024/03/18 02:55:41;;;;;;;25.38;15.55;;;8.20;84.50;;;;;;5072183;28;20033;-67
2024/03/18 02:58:07;;;;;;;25.20;15.18;;;8.20;81.20;;;;;;5073706;28;20057;-67
2024/03/18 03:00:32;;;;;;;28.25;14.32;;;8.20;79.40;;;;;;5073457;28;20035;-67
2024/03/18 03:02:58;;;;;;;22.92;14.82;;;8.20;76.70;;;;;;5073350;28;20025;-67
2024/03/18 03:05:24;;;;;;;27.30;14.65;;;8.20;74.60;;;;;;5073509;28;20016;-67
2024/03/18 03:07:49;;;;;;;25.95;15.48;;;8.20;71.20;;;;;;5073284;28;20024;-67
2024/03/18 03:10:15;;;;;;;24.25;14.75;;;8.20;65.40;;;;;;5073286;28;20024;-67
2024/03/18 03:12:40;;;;;;;22.88;14.70;;;8.20;62.80;;;;;;5073254;28;20060;-67
2024/03/18 03:15:08;;;;;;;25.05;14.10;;;8.20;65.40;;;;;;5073233;28;20021;-67
2024/03/18 03:17:33;;;;;;;22.10;13.75;;;8.20;67.70;;;;;;5073260;28;20464;-67
2024/03/18 03:19:59;;;;;;;22.67;14.25;;;8.20;75.70;;;;;;5073457;28;20032;-67
2024/03/18 03:22:25;;;;;;;26.10;14.77;;;8.20;93.20;;;;;;5073009;28;20056;-68
2024/03/18 03:24:50;;;;;;;27.02;15.10;;;8.20;92.40;;;;;;5073090;28;20074;-67
2024/03/18 03:27:16;;;;;;;24.08;14.93;;;8.20;76.80;;;;;;5073078;28;20031;-67
2024/03/18 03:29:42;;;;;;;25.10;15.02;;;8.20;71.00;;;;;;5073146;28;20032;-68
2024/03/18 03:32:10;;;;;;;26.63;14.82;;;8.20;74.80;;;;;;5071987;28;20039;-67
2024/03/18 03:34:37;;;;;;;25.90;15.05;;;8.30;87.50;;;;;;5073136;28;20020;-68
2024/03/18 03:37:03;;;;;;;24.38;14.45;;;8.30;92.20;;;;;;5072967;28;20154;-68
2024/03/18 03:39:29;;;;;;;24.33;15.45;;;8.30;97.70;;;;;;5073014;28;20150;-67
2024/03/18 03:41:55;;;;;;;25.83;15.20;;;8.30;99.90;;;;;;5073006;28;20028;-67
2024/03/18 03:44:21;;;;;;;26.85;16.02;;;8.30;99.90;;;;;;5073058;28;20474;-67
2024/03/18 03:46:50;;;;;;;27.73;16.02;;;8.30;99.90;;;;;;5073175;28;20386;-67
2024/03/18 03:49:17;;;;;;;27.33;15.75;;;8.20;99.90;;;;;;5072954;28;20386;-67
2024/03/18 03:51:42;;;;;;;28.42;16.88;;;8.20;99.90;;;;;;5071801;28;20025;-67
2024/03/18 03:54:09;;;;;;;32.22;17.48;;;8.20;99.90;;;;;;5072689;28;20055;-67
2024/03/18 03:56:34;;;;;;;30.98;16.75;;;8.20;99.90;;;;;;5072953;28;20085;-68
2024/03/18 03:59:00;;;;;;;35.15;17.67;;;8.20;99.90;;;;;;5073075;28;20033;-67
2024/03/18 04:01:26;;;;;;;33.95;18.10;;;8.10;99.90;;;;;;5072695;28;20028;-67
2024/03/18 04:03:52;;;;;;;36.30;19.27;;;8.10;99.90;;;;;;5072660;28;20031;-67
2024/03/18 04:06:17;;;;;;;36.15;19.00;;;8.10;99.90;;;;;;5076084;28;20025;-67
2024/03/18 04:08:43;;;;;;;38.15;19.55;;;8.00;99.90;;;;;;5076616;28;20390;-67
2024/03/18 04:11:09;;;;;;;40.85;20.15;;;8.00;99.90;;;;;;5076535;28;20025;-68
2024/03/18 04:13:34;;;;;;;40.05;21.50;;;8.00;99.90;;;;;;5076254;28;20116;-68
2024/03/18 04:16:01;;;;;;;35.80;19.80;;;8.00;99.90;;;;;;5076556;28;20032;-68
2024/03/18 04:18:27;;;;;;;47.00;22.88;;;8.00;99.90;;;;;;5076657;28;20040;-68
2024/03/18 04:20:53;;;;;;;37.03;20.83;;;7.90;99.90;;;;;;5076433;28;20029;-68
2024/03/18 04:23:19;;;;;;;40.95;21.52;;;7.90;99.90;;;;;;5075835;28;20441;-68
2024/03/18 04:25:44;;;;;;;40.40;21.38;;;7.80;99.90;;;;;;5076250;28;20410;-69
2024/03/18 04:28:10;;;;;;;40.28;20.42;;;7.90;99.90;;;;;;5076302;28;20017;-68
2024/03/18 04:30:37;;;;;;;40.30;23.33;;;7.90;99.90;;;;;;5076155;28;20024;-68
2024/03/18 04:33:04;;;;;;;45.13;23.63;;;7.80;99.90;;;;;;5076666;28;20025;-68
2024/03/18 04:35:30;;;;;;;43.30;23.40;;;7.90;99.90;;;;;;5074989;28;20028;-68
2024/03/18 04:37:56;;;;;;;45.05;23.83;;;7.90;99.90;;;;;;5075145;28;20028;-68
2024/03/18 04:40:23;;;;;;;46.65;24.73;;;7.80;99.90;;;;;;5076030;28;20032;-68
2024/03/18 04:42:49;;;;;;;43.45;23.40;;;7.80;99.90;;;;;;5076085;28;20048;-68
2024/03/18 04:45:17;;;;;;;47.00;23.60;;;7.80;99.90;;;;;;5075865;28;20060;-68
2024/03/18 04:47:47;;;;;;;51.30;25.58;;;7.80;99.90;;;;;;5075903;28;20024;-68
2024/03/18 04:50:14;;;;;;;56.45;25.70;;;7.90;99.90;;;;;;5075685;28;20021;-68
2024/03/18 04:52:41;;;;;;;53.03;26.02;;;7.90;99.90;;;;;;5075824;28;20394;-68
2024/03/18 04:55:07;;;;;;;54.22;26.40;;;7.90;99.90;;;;;;5075781;28;20029;-68
2024/03/18 04:57:34;;;;;;;48.55;25.98;;;7.90;99.90;;;;;;5075768;28;20491;-68
2024/03/18 05:00:00;;;;;;;53.55;25.98;;;7.90;99.90;;;;;;5075924;28;20155;-68
2024/03/18 05:02:25;;;;;;;50.08;25.42;;;7.90;99.90;;;;;;5075799;28;20155;-68
2024/03/18 05:04:51;;;;;;;53.67;26.30;;;7.90;99.90;;;;;;5075727;28;20136;-68
2024/03/18 05:07:18;;;;;;;53.17;26.45;;;8.00;99.90;;;;;;5075464;28;20052;-68
2024/03/18 05:09:44;;;;;;;51.33;25.67;;;8.00;99.90;;;;;;5074115;28;20021;-68
2024/03/18 05:12:10;;;;;;;54.17;25.38;;;8.00;99.90;;;;;;5075302;28;20016;-68
2024/03/18 05:14:36;;;;;;;56.63;26.95;;;8.00;99.90;;;;;;5075207;28;20487;-67
2024/03/18 05:17:01;;;;;;;56.03;26.00;;;7.90;99.90;;;;;;5075134;28;20020;-68
2024/03/18 05:19:27;;;;;;;53.50;24.85;;;7.90;99.90;;;;;;5075372;28;20079;-68
2024/03/18 05:21:52;;;;;;;49.72;25.40;;;7.90;99.90;;;;;;5075245;28;20048;-68
2024/03/18 05:24:18;;;;;;;49.28;24.75;;;7.90;99.90;;;;;;5075157;28;20035;-68
2024/03/18 05:26:43;;;;;;;55.53;25.63;;;7.90;99.90;;;;;;5075205;28;20107;-68
2024/03/18 05:29:10;;;;;;;49.38;25.73;;;7.90;99.90;;;;;;5074947;28;20021;-68
2024/03/18 05:31:35;;;;;;;54.67;25.27;;;7.90;99.90;;;;;;5075275;28;20032;-68
2024/03/18 05:34:04;;;;;;;48.38;24.92;;;7.90;99.90;;;;;;5074997;28;20432;-68
2024/03/18 05:36:30;;;;;;;49.65;25.60;;;7.90;99.90;;;;;;5075033;28;20048;-68
2024/03/18 05:38:55;;;;;;;54.20;26.90;;;7.90;99.90;;;;;;5074998;28;20024;-68
2024/03/18 05:41:21;;;;;;;51.00;25.50;;;7.90;99.90;;;;;;5075061;28;20088;-68
2024/03/18 05:43:47;;;;;;;55.13;26.45;;;7.90;99.90;;;;;;5074953;28;20158;-68
2024/03/18 05:46:14;;;;;;;59.00;26.33;;;7.90;99.90;;;;;;5074759;28;20029;-67
2024/03/18 05:48:40;;;;;;;49.95;25.20;;;7.90;99.90;;;;;;5074556;28;20090;-68
2024/03/18 05:51:06;;;;;;;48.40;24.90;;;7.90;99.90;;;;;;5074727;28;20033;-68
2024/03/18 05:53:31;;;;;;;50.75;25.98;;;7.90;99.90;;;;;;5073758;28;20040;-68
2024/03/18 05:55:57;;;;;;;52.67;25.95;;;7.90;99.90;;;;;;5074616;28;20543;-68
2024/03/18 05:58:22;;;;;;;52.47;26.70;;;7.90;99.90;;;;;;5074484;28;20025;-68
2024/03/18 06:00:48;;;;;;;46.03;24.08;;;7.90;99.90;;;;;;5074622;28;20040;-68
2024/03/18 06:03:13;;;;;;;53.25;25.45;;;7.90;99.90;;;;;;5074326;28;20025;-67
2024/03/18 06:05:40;;;;;;;48.63;25.67;;;7.90;99.90;;;;;;5074585;28;20021;-68
2024/03/18 06:08:06;;;;;;;47.42;25.10;;;8.00;99.90;;;;;;5074594;28;20028;-67
2024/03/18 06:10:31;;;;;;;54.08;26.58;;;8.00;99.90;;;;;;5074357;28;20036;-67
2024/03/18 06:12:57;;;;;;;51.17;25.55;;;8.00;99.90;;;;;;5074339;28;20028;-67
2024/03/18 06:15:22;;;;;;;47.95;26.23;;;8.00;99.90;;;;;;5074143;28;20060;-67
2024/03/18 06:17:49;;;;;;;47.58;25.83;;;8.10;99.90;;;;;;5074085;28;20040;-67
2024/03/18 06:20:15;;;;;;;50.22;25.88;;;8.10;99.90;;;;;;5074044;28;20498;-68
2024/03/18 06:22:41;;;;;;;52.03;25.48;;;8.10;99.90;;;;;;5073778;28;20088;-67
2024/03/18 06:27:53;;;;;;;50.47;26.08;;;8.10;99.90;;;;;;5073109;28;20032;-67
2024/03/18 06:30:19;;;;;;;51.58;26.83;;;8.20;99.90;;;;;;5073855;28;20020;-67
2024/03/18 06:32:45;;;;;;;51.08;26.17;;;8.20;99.90;;;;;;5073815;28;20035;-67
2024/03/18 06:35:11;;;;;;;52.70;25.80;;;8.20;99.90;;;;;;5074058;28;20029;-67
2024/03/18 06:37:37;;;;;;;52.97;26.15;;;8.20;99.90;;;;;;5073683;28;20028;-67
2024/03/18 06:40:03;;;;;;;49.17;24.73;;;8.30;99.90;;;;;;5072519;28;20115;-67
2024/03/18 06:42:29;;;;;;;49.92;25.00;;;8.30;99.90;;;;;;5073386;28;20074;-67
2024/03/18 06:44:54;;;;;;;44.80;25.33;;;8.30;99.90;;;;;;5073545;28;20029;-67
2024/03/18 06:47:20;;;;;;;48.92;25.30;;;8.40;99.90;;;;;;5073706;28;20104;-67
2024/03/18 06:49:46;;;;;;;50.28;25.52;;;8.40;99.90;;;;;;5072293;28;20111;-67
2024/03/18 06:52:12;;;;;;;53.58;26.55;;;8.40;99.90;;;;;;5073517;28;20059;-67
2024/03/18 06:54:37;;;;;;;51.03;25.70;;;8.40;99.90;;;;;;5073544;28;20562;-67
2024/03/18 06:57:03;;;;;;;51.28;25.95;;;8.50;99.90;;;;;;5073653;28;20501;-67
2024/03/18 06:59:29;;;;;;;51.55;25.30;;;8.50;99.90;;;;;;5073448;28;20024;-67
2024/03/18 07:01:54;;;;;;;51.55;26.27;;;8.50;99.90;;;;;;5073564;28;20482;-67
2024/03/18 07:04:20;;;;;;;48.33;26.40;;;8.50;99.90;;;;;;5073097;28;20526;-68
2024/03/18 07:06:45;;;;;;;48.63;26.23;;;8.60;99.90;;;;;;5073508;28;20409;-67
2024/03/18 07:09:11;;;;;;;44.35;24.75;;;8.60;99.90;;;;;;5072617;28;20020;-67
2024/03/18 07:11:37;;;;;;;45.80;24.95;;;8.60;99.90;;;;;;5072789;28;20025;-68
2024/03/18 07:14:02;;;;;;;52.80;25.15;;;8.70;99.90;;;;;;5073189;28;20470;-68
2024/03/18 07:16:28;;;;;;;48.15;25.17;;;8.80;99.90;;;;;;5064285;28;20547;-68
2024/03/18 07:18:53;;;;;;;50.30;26.23;;;8.80;99.90;;;;;;5070172;28;20039;-68
2024/03/18 07:21:19;;;;;;;48.28;25.73;;;8.80;99.90;;;;;;5072639;28;20386;-68
2024/03/18 07:23:44;;;;;;;49.35;25.75;;;8.80;99.90;;;;;;5070442;28;20040;-68
2024/03/18 07:26:10;;;;;;;48.85;24.63;;;8.80;99.90;;;;;;5063045;28;20375;-68
2024/03/18 07:28:36;;;;;;;44.60;23.95;;;8.90;99.90;;;;;;5056500;28;20035;-68
2024/03/18 07:31:03;;;;;;;49.15;25.45;;;8.90;99.90;;;;;;5061774;28;20021;-68
2024/03/18 07:33:29;;;;;;;47.65;24.10;;;8.90;99.90;;;;;;5056937;28;20376;-68
2024/03/18 07:35:54;;;;;;;51.00;26.02;;;9.00;99.90;;;;;;5064914;28;20033;-68
2024/03/18 07:38:20;;;;;;;43.63;24.42;;;9.00;99.90;;;;;;5068951;28;20178;-67
2024/03/18 07:40:48;;;;;;;46.78;24.02;;;9.00;99.90;;;;;;5075984;28;20041;-68
2024/03/18 07:43:14;;;;;;;52.75;25.63;;;9.10;99.90;;;;;;5063480;28;20109;-67
2024/03/18 07:45:40;;;;;;;49.40;23.88;;;9.10;99.90;;;;;;5066376;28;20489;-67
2024/03/18 07:48:06;;;;;;;45.22;23.27;;;9.20;99.90;;;;;;5077228;28;20128;-68
2024/03/18 07:50:34;;;;;;;43.80;23.80;;;9.20;99.90;;;;;;5069411;28;20387;-68
2024/03/18 07:53:01;;;;;;;38.30;22.67;;;9.30;99.90;;;;;;5069397;28;20054;-67
2024/03/18 07:55:28;;;;;;;39.03;23.35;;;9.40;99.90;;;;;;5061106;28;20032;-68
2024/03/18 07:57:53;;;;;;;43.30;23.65;;;9.40;99.90;;;;;;5057867;28;20490;-68
2024/03/18 08:00:19;;;;;;;40.65;21.88;;;9.50;99.90;;;;;;5071926;28;20044;-68
2024/03/18 08:02:45;;;;;;;41.38;22.17;;;9.60;99.90;;;;;;5074962;28;20044;-68
2024/03/18 08:05:12;;;;;;;38.45;21.15;;;9.70;99.90;;;;;;5062833;28;20033;-68
2024/03/18 08:07:38;;;;;;;35.22;20.20;;;9.70;99.90;;;;;;5070612;28;20664;-68
2024/03/18 08:10:04;;;;;;;39.67;21.50;;;9.80;99.90;;;;;;5067100;28;20025;-68
2024/03/18 08:12:29;;;;;;;37.33;21.15;;;9.80;99.90;;;;;;5076830;28;20111;-67
2024/03/18 08:14:55;;;;;;;36.67;20.23;;;9.90;99.90;;;;;;5066033;28;20033;-68
2024/03/18 08:17:21;;;;;;;34.03;19.75;;;10.10;99.90;;;;;;5072085;28;20028;-68
2024/03/18 08:19:46;;;;;;;35.25;19.75;;;10.20;99.90;;;;;;5072149;28;20032;-67
2024/03/18 08:22:16;;;;;;;31.42;18.63;;;10.20;99.90;;;;;;5075096;28;20045;-68
2024/03/18 08:24:43;;;;;;;31.75;19.60;;;10.30;99.90;;;;;;5075289;28;20029;-68
2024/03/18 08:27:09;;;;;;;30.27;18.40;;;10.50;99.90;;;;;;5071153;28;20028;-68
2024/03/18 08:29:35;;;;;;;29.90;17.80;;;10.50;99.90;;;;;;5071685;28;20833;-68
2024/03/18 08:32:01;;;;;;;27.23;17.73;;;10.80;99.90;;;;;;5068581;28;20017;-68
2024/03/18 08:34:26;;;;;;;27.95;17.15;;;10.80;99.90;;;;;;5071816;28;20567;-68
2024/03/18 08:36:52;;;;;;;32.97;17.83;;;10.90;99.90;;;;;;5074091;28;20158;-68
2024/03/18 08:39:18;;;;;;;26.60;16.50;;;11.00;99.90;;;;;;5074643;28;20232;-68
2024/03/18 08:41:45;;;;;;;25.92;16.33;;;10.90;99.90;;;;;;5071499;28;20021;-68
2024/03/18 08:44:10;;;;;;;30.80;17.73;;;10.90;99.90;;;;;;5068613;28;20033;-68
2024/03/18 08:46:36;;;;;;;31.35;18.10;;;10.90;99.90;;;;;;5073246;28;20027;-68
2024/03/18 08:49:01;;;;;;;30.83;17.98;;;10.90;99.90;;;;;;5073839;28;20052;-68
2024/03/18 08:51:27;;;;;;;28.85;16.92;;;10.90;99.90;;;;;;5071035;28;20029;-67
2024/03/18 08:53:52;;;;;;;31.50;18.10;;;11.00;99.90;;;;;;5062106;28;20039;-68
2024/03/18 08:56:18;;;;;;;26.38;17.08;;;11.00;99.90;;;;;;5066207;28;20064;-68
2024/03/18 08:58:43;;;;;;;24.85;16.88;;;10.90;99.90;;;;;;5067190;28;20056;-68
2024/03/18 09:01:09;;;;;;;28.00;16.42;;;11.00;99.90;;;;;;5074935;28;20398;-68
2024/03/18 09:03:35;;;;;;;31.63;16.98;;;11.10;99.90;;;;;;5072448;28;20068;-68
2024/03/18 09:06:01;;;;;;;27.20;16.70;;;11.00;99.90;;;;;;5071146;28;20025;-68
2024/03/18 09:08:26;;;;;;;26.17;16.27;;;11.20;99.90;;;;;;5075178;28;20490;-68
2024/03/18 09:10:52;;;;;;;24.80;16.13;;;11.20;99.90;;;;;;5062280;28;20128;-68
2024/03/18 09:13:18;;;;;;;26.20;16.25;;;11.40;99.90;;;;;;5072580;28;20029;-68
2024/03/18 09:15:43;;;;;;;25.15;16.17;;;11.50;99.90;;;;;;5070188;28;20028;-68
2024/03/18 09:18:09;;;;;;;27.05;15.27;;;11.50;99.90;;;;;;5067570;28;20032;-67
2024/03/18 09:20:35;;;;;;;24.38;15.68;;;11.60;99.90;;;;;;5075278;28;20032;-68
2024/03/18 09:23:00;;;;;;;23.40;15.73;;;11.70;99.90;;;;;;5072821;28;20108;-68
2024/03/18 09:25:26;;;;;;;23.55;15.35;;;11.80;99.90;;;;;;5076775;28;20111;-68
2024/03/18 09:27:52;;;;;;;24.52;14.93;;;11.90;99.90;;;;;;5071622;28;20025;-68
2024/03/18 09:30:17;;;;;;;27.95;15.75;;;12.10;99.90;;;;;;5075040;28;20036;-68
2024/03/18 09:32:43;;;;;;;23.05;15.20;;;12.20;99.90;;;;;;5074803;28;20020;-68
2024/03/18 09:35:09;;;;;;;20.95;14.05;;;12.20;99.90;;;;;;5073335;28;20111;-68
2024/03/18 09:37:35;;;;;;;23.75;14.70;;;12.30;99.90;;;;;;5070536;28;20289;-67
2024/03/18 09:40:01;;;;;;;24.30;14.80;;;12.40;99.90;;;;;;5072905;28;20099;-67
2024/03/18 09:42:28;;;;;;;23.02;14.85;;;12.40;98.30;;;;;;5062712;28;20581;-67
2024/03/18 09:44:54;;;;;;;21.38;13.30;;;12.40;96.40;;;;;;5073056;28;20017;-67
2024/03/18 09:47:22;;;;;;;18.58;12.20;;;12.50;97.20;;;;;;5074517;28;20032;-67
2024/03/18 09:49:49;;;;;;;23.40;13.98;;;12.70;97.90;;;;;;5084388;28;20029;-67
2024/03/18 09:52:16;;;;;;;22.77;13.48;;;12.80;86.80;;;;;;5063886;28;20027;-67
2024/03/18 09:54:42;;;;;;;18.67;12.55;;;13.00;77.00;;;;;;5075007;28;20059;-67
2024/03/18 09:57:13;;;;;;;21.13;13.07;;;13.00;59.50;;;;;;5070092;28;20029;-67
2024/03/18 09:59:38;;;;;;;20.85;13.57;;;13.10;54.60;;;;;;5072139;28;20029;-67
2024/03/18 10:02:04;;;;;;;20.52;13.52;;;13.10;64.40;;;;;;5071515;28;20390;-67
2024/03/18 10:04:29;;;;;;;20.42;13.80;;;13.10;49.40;;;;;;5078931;28;20028;-67
2024/03/18 10:06:56;;;;;;;18.35;13.20;;;13.20;43.50;;;;;;5073517;28;20037;-68
2024/03/18 10:09:22;;;;;;;22.05;13.70;;;13.10;32.20;;;;;;5076053;28;20479;-68
2024/03/18 10:11:49;;;;;;;22.95;14.82;;;13.10;52.00;;;;;;5071885;28;20060;-68
2024/03/18 10:14:14;;;;;;;23.05;14.10;;;13.00;59.70;;;;;;5072353;28;20032;-68
2024/03/18 10:16:40;;;;;;;21.98;14.23;;;13.20;52.80;;;;;;5070254;28;20038;-68
2024/03/18 10:19:11;;;;;;;21.98;14.48;;;13.10;45.70;;;;;;5070637;28;20040;-68
2024/03/18 10:21:38;;;;;;;21.77;14.30;;;12.80;55.70;;;;;;5069984;28;20505;-68
2024/03/18 10:24:06;;;;;;;24.45;14.70;;;12.80;62.70;;;;;;5073231;28;20029;-68
2024/03/18 10:26:31;;;;;;;24.42;15.27;;;12.80;75.70;;;;;;5072957;28;20029;-68
2024/03/18 10:28:57;;;;;;;22.95;15.23;;;12.80;77.20;;;;;;5071457;28;20069;-68
2024/03/18 10:31:23;;;;;;;24.13;15.18;;;12.70;63.70;;;;;;5069959;28;20025;-68
2024/03/18 10:33:48;;;;;;;23.27;14.70;;;12.70;67.80;;;;;;5064012;28;20398;-68
2024/03/18 10:36:21;;;;;;;21.92;13.70;;;12.80;81.30;;;;;;5067720;28;20265;-67
2024/03/18 10:39:04;;;;;;;23.00;14.85;;;12.70;78.50;;;;;;5069643;28;20225;-67
2024/03/18 10:41:37;;;;;;;22.67;15.35;;;12.80;89.60;;;;;;5064516;28;20036;-67
2024/03/18 10:44:22;;;;;;;23.70;14.65;;;12.80;88.50;;;;;;5069138;28;20032;-67
2024/03/18 10:46:48;;;;;;;26.63;16.45;;;12.90;79.10;;;;;;5070825;28;20033;-67
2024/03/18 10:49:17;;;;;;;24.92;16.55;;;12.90;76.10;;;;;;5066250;28;20021;-68
2024/03/18 10:51:46;;;;;;;27.95;16.30;;;13.00;67.50;;;;;;5070497;28;20056;-67
2024/03/18 10:54:15;;;;;;;27.85;16.55;;;13.00;67.40;;;;;;5071349;28;20029;-67
2024/03/18 10:56:43;;;;;;;26.75;17.05;;;13.00;69.80;;;;;;5067388;28;20055;-68
2024/03/18 10:59:11;;;;;;;29.15;17.50;;;13.10;67.40;;;;;;5072840;28;20498;-67
2024/03/18 11:01:37;;;;;;;26.58;17.13;;;13.10;59.20;;;;;;5057843;28;20032;-67
2024/03/18 11:04:03;;;;;;;24.58;16.58;;;13.10;64.50;;;;;;5066934;28;20032;-67
2024/03/18 11:06:28;;;;;;;25.30;15.98;;;13.10;66.10;;;;;;5071637;28;20054;-67
2024/03/18 11:08:56;;;;;;;25.95;16.98;;;13.10;65.70;;;;;;5071183;28;20021;-67
2024/03/18 11:11:22;;;;;;;23.90;15.07;;;13.10;61.40;;;;;;5061929;28;20067;-67
2024/03/18 11:13:47;;;;;;;25.95;16.90;;;13.20;67.30;;;;;;5070592;28;20614;-67
2024/03/18 11:16:14;;;;;;;29.08;17.95;;;13.20;61.00;;;;;;5065290;28;20505;-67
2024/03/18 11:18:46;;;;;;;28.00;17.48;;;13.10;62.50;;;;;;5066625;28;20029;-67
2024/03/18 11:21:23;;;;;;;27.40;17.80;;;13.10;55.60;;;;;;5062864;28;20039;-67
2024/03/18 11:24:00;;;;;;;28.42;17.23;;;13.20;71.20;;;;;;5070188;28;20036;-68
2024/03/18 11:26:27;;;;;;;26.88;16.38;;;13.30;68.70;;;;;;5062363;28;20052;-68
2024/03/18 11:29:03;;;;;;;28.15;17.17;;;13.30;55.90;;;;;;5071654;28;20103;-67
2024/03/18 11:31:34;;;;;;;27.77;17.20;;;13.30;52.80;;;;;;5067067;28;20021;-67
2024/03/18 11:34:04;;;;;;;24.67;16.45;;;13.30;69.60;;;;;;5070109;28;20029;-67
2024/03/18 11:36:34;;;;;;;23.55;16.60;;;13.50;49.00;;;;;;5073663;28;20497;-67
2024/03/18 11:39:00;;;;;;;26.95;17.70;;;13.60;41.20;;;;;;5071389;28;20494;-67
2024/03/18 11:41:26;;;;;;;26.65;17.35;;;13.70;31.20;;;;;;5071441;28;20039;-68
2024/03/18 11:43:51;;;;;;;25.48;17.92;;;13.80;21.70;;;;;;5070484;28;20029;-67
2024/03/18 11:46:17;;;;;;;29.35;19.13;;;13.80;20.10;;;;;;5069246;28;20028;-67
2024/03/18 11:48:43;;;;;;;23.83;17.10;;;13.80;18.90;;;;;;5068229;28;20344;-67
2024/03/18 11:51:10;;;;;;;28.73;18.65;;;13.90;28.20;;;;;;5060744;28;20086;-67
2024/03/18 11:53:36;;;;;;;27.90;17.80;;;13.80;15.10;;;;;;5056873;28;20571;-67
2024/03/18 11:56:02;;;;;;;29.02;18.25;;;13.80;18.80;;;;;;5061777;28;20052;-67
2024/03/18 11:58:27;;;;;;;32.60;20.13;;;13.70;18.80;;;;;;5065868;28;20040;-67
2024/03/18 12:00:53;;;;;;;28.30;18.73;;;13.70;18.10;;;;;;5069141;28;20024;-68
2024/03/18 12:03:21;;;;;;;29.40;18.10;;;13.60;24.30;;;;;;5069843;28;20099;-68
2024/03/18 12:05:47;;;;;;;29.35;18.33;;;13.50;29.30;;;;;;5066662;28;20078;-68
2024/03/18 12:08:17;;;;;;;29.23;19.00;;;13.40;34.40;;;;;;5061446;28;20020;-68
2024/03/18 12:10:44;;;;;;;29.27;18.67;;;13.30;50.80;;;;;;5065583;28;20020;-68
2024/03/18 12:13:12;;;;;;;27.45;17.40;;;13.30;51.30;;;;;;5063177;28;20032;-68
2024/03/18 12:15:39;;;;;;;27.88;18.05;;;13.30;48.30;;;;;;5064259;28;20131;-68
2024/03/18 12:18:06;;;;;;;30.80;18.35;;;13.20;54.10;;;;;;5068644;28;20035;-68
2024/03/18 12:20:32;;;;;;;25.25;17.50;;;13.20;59.50;;;;;;5063876;28;20497;-68
2024/03/18 12:23:04;;;;;;;29.52;17.52;;;13.20;58.60;;;;;;5070787;28;20045;-68
2024/03/18 12:28:50;;;;;;;27.90;17.65;;;13.40;65.70;;;;;;5075366;28;20036;-68
2024/03/18 12:31:09;;;;;;;25.67;17.60;;;13.50;43.30;;;;;;5076821;28;20025;-68
2024/03/18 12:33:35;;;;;;;28.90;17.08;;;13.50;32.80;;;;;;5075971;28;20035;-67
2024/03/18 12:36:06;;;;;;;29.60;17.38;;;13.50;37.90;;;;;;5085800;28;20107;-69